createdAt,value
2023-03-17T00:00:41.399Z,100264.78
2023-03-17T00:04:43.686Z,100270.94
2023-03-17T00:08:46.365Z,100271.09
2023-03-17T00:12:49.489Z,100277.09
2023-03-17T00:16:53.113Z,100271.31
2023-03-17T00:20:54.687Z,100274.75
2023-03-17T00:24:56.225Z,100271.25
2023-03-17T00:28:57.833Z,100259.34
2023-03-17T00:32:59.476Z,100255.81
2023-03-17T00:37:01.924Z,100256.56
2023-03-17T00:41:04.427Z,100252.19
2023-03-17T00:45:06.543Z,100250.47
2023-03-17T00:53:21.395Z,100259.69
2023-03-17T00:57:23.566Z,100246.94
2023-03-17T01:01:26.779Z,100250.34
2023-03-17T01:05:28.586Z,100261.50
2023-03-17T01:09:30.844Z,100257.13
2023-03-17T01:13:32.862Z,100249.53
2023-03-17T01:17:34.472Z,100246.94
2023-03-17T01:21:36.534Z,100240.13
2023-03-17T01:25:40.387Z,100231.53
2023-03-17T01:29:42.028Z,100205.91
2023-03-17T01:33:43.674Z,100212.63
2023-03-17T01:37:47.061Z,100205.78
2023-03-17T01:41:48.595Z,100204.97
2023-03-17T01:46:20.957Z,100180.16
2023-03-17T01:50:23.625Z,100166.25
2023-03-17T01:54:36.918Z,100181.66
2023-03-17T01:58:39.615Z,100180.78
2023-03-17T02:02:43.788Z,100187.72
2023-03-17T02:06:57.479Z,100180.91
2023-03-17T02:11:02.110Z,100174.13
2023-03-17T02:15:05.296Z,100173.16
2023-03-17T02:19:06.918Z,100184.25
2023-03-17T02:23:08.503Z,100168.94
2023-03-17T02:27:35.440Z,100167.94
2023-03-17T02:31:37.018Z,100177.03
2023-03-17T02:35:39.682Z,100189.66
2023-03-17T02:39:43.278Z,100187.88
2023-03-17T02:43:44.846Z,100185.09
2023-03-17T02:47:47.892Z,100173.84
2023-03-17T02:51:49.422Z,100176.06
2023-03-17T02:55:51.103Z,100166.47
2023-03-17T02:59:52.889Z,100161.09
2023-03-17T03:03:54.991Z,100167.59
2023-03-17T03:07:56.584Z,100154.47
2023-03-17T03:11:58.098Z,100156.78
2023-03-17T03:16:00.389Z,100161.91
2023-03-17T03:20:03.312Z,100162.72
2023-03-17T03:24:07.337Z,100165.06
2023-03-17T03:28:09.968Z,100172.66
2023-03-17T03:32:11.515Z,100147.03
2023-03-17T03:36:13.430Z,100149.25
2023-03-17T03:40:15.072Z,100153.09
2023-03-17T03:44:16.656Z,100149.59
2023-03-17T03:48:18.853Z,100152.75
2023-03-17T03:52:20.965Z,100157.72
2023-03-17T03:56:22.534Z,100152.41
2023-03-17T04:00:24.369Z,100162.53
2023-03-17T04:04:26.394Z,100159.91
2023-03-17T04:08:27.956Z,100152.97
2023-03-17T04:12:29.554Z,100147.66
2023-03-17T04:16:31.135Z,100151.66
2023-03-17T04:20:33.292Z,100148.25
2023-03-17T04:24:35.255Z,100138.00
2023-03-17T04:28:36.800Z,100143.97
2023-03-17T04:32:38.329Z,100142.16
2023-03-17T04:36:40.432Z,100132.69
2023-03-17T04:40:42.163Z,100146.38
2023-03-17T04:44:44.459Z,100140.47
2023-03-17T04:48:46.363Z,100136.94
2023-03-17T04:52:48.017Z,100133.34
2023-03-17T04:56:49.581Z,100139.16
2023-03-17T05:00:51.485Z,100159.47
2023-03-17T05:04:53.524Z,100168.72
2023-03-17T05:08:55.245Z,100186.34
2023-03-17T05:12:56.729Z,100175.97
2023-03-17T05:16:58.256Z,100183.56
2023-03-17T05:21:00.221Z,100187.34
2023-03-17T05:25:02.576Z,100184.94
2023-03-17T05:29:04.321Z,100182.84
2023-03-17T05:33:06.260Z,100192.00
2023-03-17T05:37:07.978Z,100193.59
2023-03-17T05:41:10.532Z,100192.66
2023-03-17T05:45:13.093Z,100205.31
2023-03-17T05:49:15.253Z,100197.44
2023-03-17T05:53:17.455Z,100207.63
2023-03-17T05:57:19.356Z,100203.41
2023-03-17T06:01:21.045Z,100204.34
2023-03-17T06:05:22.717Z,100196.78
2023-03-17T06:09:24.325Z,100195.91
2023-03-17T06:13:25.872Z,100190.19
2023-03-17T06:17:27.360Z,100198.09
2023-03-17T06:21:28.984Z,100182.13
2023-03-17T06:25:30.842Z,100187.25
2023-03-17T06:29:32.514Z,100177.09
2023-03-17T06:33:35.300Z,100183.22
2023-03-17T06:37:37.207Z,100186.78
2023-03-17T06:41:39.081Z,100197.09
2023-03-17T06:45:41.497Z,100201.81
2023-03-17T06:49:43.070Z,100206.47
2023-03-17T06:53:44.718Z,100210.25
2023-03-17T06:57:48.323Z,100200.47
2023-03-17T07:01:51.844Z,100211.03
2023-03-17T07:05:54.666Z,100209.75
2023-03-17T07:09:56.198Z,100207.56
2023-03-17T07:13:57.782Z,100210.38
2023-03-17T07:17:59.306Z,100194.59
2023-03-17T07:22:01.007Z,100191.94
2023-03-17T07:26:03.487Z,100195.97
2023-03-17T07:30:06.085Z,100192.19
2023-03-17T07:34:07.683Z,100196.69
2023-03-17T07:38:09.960Z,100204.78
2023-03-17T07:42:15.302Z,100210.41
2023-03-17T07:46:17.494Z,100200.94
2023-03-17T07:50:19.820Z,100213.63
2023-03-17T07:54:21.543Z,100203.19
2023-03-17T07:58:23.156Z,100207.66
2023-03-17T08:02:25.059Z,100216.53
2023-03-17T08:06:26.959Z,100213.25
2023-03-17T08:10:28.629Z,100219.50
2023-03-17T08:14:30.600Z,100212.94
2023-03-17T08:18:32.244Z,100192.88
2023-03-17T08:22:33.797Z,100182.84
2023-03-17T08:26:36.146Z,100181.22
2023-03-17T08:30:38.625Z,100186.34
2023-03-17T08:34:40.618Z,100183.69
2023-03-17T08:38:44.000Z,100185.34
2023-03-17T08:42:47.720Z,100188.25
2023-03-17T08:46:50.078Z,100185.50
2023-03-17T08:50:52.010Z,100194.25
2023-03-17T08:54:54.453Z,100180.47
2023-03-17T08:58:56.437Z,100177.72
2023-03-17T09:02:58.326Z,100165.16
2023-03-17T09:07:03.804Z,100163.22
2023-03-17T09:11:07.542Z,100157.19
2023-03-17T09:15:10.228Z,100145.91
2023-03-17T09:19:11.758Z,100147.97
2023-03-17T09:23:13.744Z,100144.91
2023-03-17T09:27:15.569Z,100138.50
2023-03-17T09:31:17.175Z,100133.00
2023-03-17T09:35:19.324Z,100114.78
2023-03-17T09:39:23.076Z,100118.63
2023-03-17T09:43:47.111Z,100119.03
2023-03-17T09:48:10.893Z,100134.78
2023-03-17T09:52:18.585Z,100130.06
2023-03-17T09:56:20.779Z,100117.91
2023-03-17T10:00:27.428Z,100120.28
2023-03-17T10:04:28.982Z,100118.16
2023-03-17T10:08:33.798Z,100097.97
2023-03-17T10:12:56.581Z,100092.13
2023-03-17T10:17:15.373Z,100088.88
2023-03-17T10:21:29.969Z,100097.00
2023-03-17T10:25:34.351Z,100080.13
2023-03-17T10:29:36.137Z,100077.97
2023-03-17T10:33:37.803Z,100068.09
2023-03-17T10:37:39.780Z,100074.31
2023-03-17T10:41:53.663Z,100069.66
2023-03-17T10:46:00.754Z,100074.47
2023-03-17T10:50:21.396Z,100067.09
2023-03-17T10:54:25.240Z,100065.00
2023-03-17T10:58:40.175Z,100050.69
2023-03-17T11:02:49.309Z,100063.88
2023-03-17T11:06:51.408Z,100064.13
2023-03-17T11:10:56.709Z,100065.13
2023-03-17T11:15:00.793Z,100060.06
2023-03-17T11:19:05.035Z,100053.28
2023-03-17T11:23:19.256Z,100046.59
2023-03-17T11:27:31.548Z,100043.38
2023-03-17T11:31:46.733Z,100038.34
2023-03-17T11:35:57.749Z,100023.94
2023-03-17T11:40:13.023Z,100007.78
2023-03-17T11:44:48.955Z,100008.72
2023-03-17T11:48:59.296Z,100006.88
2023-03-17T11:53:39.467Z,99999.19
2023-03-17T11:57:48.247Z,99997.44
2023-03-17T12:02:16.497Z,99987.94
2023-03-17T12:06:26.828Z,99996.63
2023-03-17T12:10:36.292Z,99988.19
2023-03-17T12:14:53.248Z,99989.13
2023-03-17T12:19:17.578Z,99988.31
2023-03-17T12:23:29.410Z,99979.78
2023-03-17T12:28:19.231Z,99977.22
2023-03-17T12:32:39.378Z,99984.16
2023-03-17T12:36:42.629Z,99984.19
2023-03-17T12:41:09.755Z,99967.91
2023-03-17T12:45:31.229Z,99961.13
2023-03-17T12:50:09.335Z,99945.69
2023-03-17T12:54:31.991Z,99935.34
2023-03-17T12:58:37.069Z,99940.56
2023-03-17T13:02:39.741Z,99931.94
2023-03-17T13:06:46.028Z,99933.69
2023-03-17T13:10:51.146Z,99925.06
2023-03-17T13:14:53.241Z,99919.84
2023-03-17T13:19:14.667Z,99913.84
2023-03-17T13:23:19.264Z,99912.94
2023-03-17T13:27:29.916Z,99912.09
2023-03-17T13:31:36.930Z,99900.06
2023-03-17T13:36:16.334Z,99884.56
2023-03-17T13:40:52.571Z,99888.91
2023-03-17T13:45:28.489Z,99890.66
2023-03-17T13:49:32.195Z,99897.50
2023-03-17T13:53:38.386Z,99892.31
2023-03-17T13:57:40.181Z,99885.38
2023-03-17T14:02:06.741Z,99882.72
2023-03-17T14:06:12.011Z,99869.78
2023-03-17T14:10:20.444Z,99852.53
2023-03-17T14:14:45.126Z,99859.41
2023-03-17T14:18:50.405Z,99855.97
2023-03-17T14:23:03.877Z,99860.28
2023-03-17T14:27:09.616Z,99875.72
2023-03-17T14:31:22.844Z,99870.50
2023-03-17T14:35:24.418Z,99875.63
2023-03-17T14:39:26.153Z,99863.53
2023-03-17T14:43:27.662Z,99860.94
2023-03-17T14:47:35.039Z,99843.63
2023-03-17T14:51:39.238Z,99840.09
2023-03-17T14:55:43.490Z,99836.56
2023-03-17T14:59:59.803Z,99845.97
2023-03-17T15:04:13.505Z,99840.78
2023-03-17T15:08:36.049Z,99837.34
2023-03-17T15:12:38.404Z,99839.03
2023-03-17T15:16:50.862Z,99830.44
2023-03-17T15:20:55.247Z,99826.97
2023-03-17T15:25:34.716Z,99832.13
2023-03-17T15:29:36.275Z,99820.94
2023-03-17T15:33:39.603Z,99833.03
2023-03-17T15:37:41.671Z,99828.78
2023-03-17T15:41:43.325Z,99820.16
2023-03-17T15:45:45.371Z,99824.47
2023-03-17T15:49:48.494Z,99829.63
2023-03-17T15:53:50.152Z,99833.84
2023-03-17T15:57:54.967Z,99829.47
2023-03-17T16:01:57.105Z,99841.47
2023-03-17T16:06:00.134Z,99836.22
2023-03-17T16:10:01.770Z,99849.13
2023-03-17T16:14:03.463Z,99845.69
2023-03-17T16:18:08.203Z,99840.44
2023-03-17T16:22:43.344Z,99844.56
2023-03-17T16:26:44.960Z,99846.16
2023-03-17T16:30:47.619Z,99842.59
2023-03-17T16:34:49.210Z,99838.28
2023-03-17T16:38:51.110Z,99837.38
2023-03-17T16:42:53.324Z,99834.72
2023-03-17T16:46:54.906Z,99843.25
2023-03-17T16:50:57.371Z,99853.50
2023-03-17T16:54:58.943Z,99862.88
2023-03-17T16:59:01.009Z,99859.38
2023-03-17T17:03:02.851Z,99853.28
2023-03-17T17:07:04.481Z,99865.19
2023-03-17T17:11:06.509Z,99853.06
2023-03-17T17:15:10.247Z,99852.97
2023-03-17T17:19:17.130Z,99864.94
2023-03-17T17:23:22.098Z,99881.97
2023-03-17T17:27:23.751Z,99886.16
2023-03-17T17:31:25.584Z,99886.03
2023-03-17T17:35:32.505Z,99887.66
2023-03-17T17:39:34.382Z,99898.78
2023-03-17T17:43:36.132Z,99890.09
2023-03-17T17:47:37.936Z,99898.63
2023-03-17T17:51:39.473Z,99897.72
2023-03-17T17:55:43.071Z,99905.38
2023-03-17T17:59:44.886Z,99901.00
2023-03-17T18:03:46.534Z,99915.53
2023-03-17T18:07:48.159Z,99922.28
2023-03-17T18:11:49.819Z,99924.81
2023-03-17T18:15:51.821Z,99913.53
2023-03-17T18:19:53.482Z,99917.72
2023-03-17T18:23:55.771Z,99918.50
2023-03-17T18:27:57.446Z,99920.16
2023-03-17T18:31:59.307Z,99921.06
2023-03-17T18:36:01.334Z,99924.47
2023-03-17T18:40:18.007Z,99915.81
2023-03-17T18:44:22.327Z,99912.38
2023-03-17T18:48:23.919Z,99922.56
2023-03-17T18:52:33.599Z,99925.91
2023-03-17T18:56:35.142Z,99919.84
2023-03-17T19:00:36.897Z,99930.88
2023-03-17T19:04:45.835Z,99924.78
2023-03-17T19:08:48.415Z,99919.59
2023-03-17T19:12:50.598Z,99919.53
2023-03-17T19:16:52.246Z,99925.47
2023-03-17T19:20:55.961Z,99927.06
2023-03-17T19:24:57.527Z,99925.31
2023-03-17T19:28:59.100Z,99928.59
2023-03-17T19:33:00.687Z,99932.75
2023-03-17T19:37:03.552Z,99930.00
2023-03-17T19:41:05.860Z,99944.50
2023-03-17T19:45:08.073Z,99944.50
2023-03-17T19:49:10.041Z,99953.91
2023-03-17T19:53:12.070Z,99953.00
2023-03-17T19:57:13.963Z,99951.34
2023-03-17T20:01:16.472Z,99951.41
2023-03-17T20:05:18.222Z,99947.13
2023-03-17T20:09:19.896Z,99950.50
2023-03-17T20:13:22.558Z,99955.56
2023-03-17T20:17:24.141Z,99971.69
2023-03-17T20:21:25.965Z,99972.47
2023-03-17T20:25:27.538Z,99970.72
2023-03-17T20:29:29.514Z,99960.31
2023-03-17T20:33:33.311Z,99959.34
2023-03-17T20:37:35.615Z,99961.00
2023-03-17T20:41:37.270Z,99963.50
2023-03-17T20:45:38.882Z,99966.06
2023-03-17T20:49:40.476Z,99967.03
2023-03-17T20:53:44.627Z,99963.56
2023-03-17T20:57:47.443Z,99974.50
2023-03-17T21:01:49.892Z,99965.81
2023-03-17T21:05:51.576Z,99978.53
2023-03-17T21:09:56.437Z,99977.63
2023-03-17T21:13:58.054Z,99979.97
2023-03-17T21:17:59.708Z,99980.69
2023-03-17T21:22:01.610Z,99991.75
2023-03-17T21:26:03.885Z,99992.72
2023-03-17T21:30:11.997Z,99988.41
2023-03-17T21:34:13.723Z,99989.38
2023-03-17T21:38:16.041Z,99984.31
2023-03-17T21:42:17.901Z,99977.53
2023-03-17T21:46:19.441Z,99980.19
2023-03-17T21:50:21.473Z,99974.13
2023-03-17T21:54:24.337Z,99981.03
2023-03-17T21:58:25.888Z,99986.97
2023-03-17T22:02:28.089Z,99995.28
2023-03-17T22:06:29.806Z,99997.75
2023-03-17T22:10:31.858Z,100003.00
2023-03-17T22:14:35.462Z,100003.91
2023-03-17T22:18:37.546Z,100008.13
2023-03-17T22:22:39.111Z,99995.38
2023-03-17T22:26:40.926Z,100000.50
2023-03-17T22:30:42.829Z,100003.97
2023-03-17T22:34:45.190Z,100008.34
2023-03-17T22:38:47.518Z,100018.72
2023-03-17T22:42:49.091Z,100021.34
2023-03-17T22:46:50.634Z,100025.69
2023-03-17T22:50:52.380Z,100022.22
2023-03-17T22:54:53.949Z,100025.63
2023-03-17T22:58:56.341Z,100014.31
2023-03-17T23:02:58.273Z,100017.63
2023-03-17T23:06:59.867Z,100011.34
2023-03-17T23:11:07.861Z,100025.03
2023-03-17T23:15:11.457Z,100022.38
2023-03-17T23:19:13.394Z,100049.63
2023-03-17T23:23:15.311Z,100048.06
2023-03-17T23:27:16.836Z,100052.47
2023-03-17T23:31:19.482Z,100054.38
2023-03-17T23:35:21.620Z,100065.53
2023-03-17T23:39:23.448Z,100061.44
2023-03-17T23:43:25.972Z,100065.72
2023-03-17T23:47:28.164Z,100034.91
2023-03-17T23:51:29.835Z,100072.53
2023-03-17T23:55:31.476Z,100071.63
2023-03-17T23:59:33.875Z,100071.63
